sensor_id;sensor_type;location;lat;lon;timestamp;P1;durP1;ratioP1;P2;durP2;ratioP2
33170;SDS011;19535;50.672;4.206;2022-08-21T00:01:41;6.57;;;5.88;;
33170;SDS011;19535;50.672;4.206;2022-08-21T00:04:09;6.97;;;6.35;;
33170;SDS011;19535;50.672;4.206;2022-08-21T00:06:39;6.47;;;5.88;;
33170;SDS011;19535;50.672;4.206;2022-08-21T00:09:07;5.85;;;5.15;;
33170;SDS011;19535;50.672;4.206;2022-08-21T00:11:35;6.70;;;5.97;;
33170;SDS011;19535;50.672;4.206;2022-08-21T00:14:03;7.32;;;5.55;;
33170;SDS011;19535;50.672;4.206;2022-08-21T00:18:59;5.60;;;4.80;;
33170;SDS011;19535;50.672;4.206;2022-08-21T00:21:26;4.68;;;4.28;;
33170;SDS011;19535;50.672;4.206;2022-08-21T00:23:52;6.07;;;5.10;;
33170;SDS011;19535;50.672;4.206;2022-08-21T00:26:19;6.30;;;4.68;;
33170;SDS011;19535;50.672;4.206;2022-08-21T00:28:46;5.28;;;4.43;;
33170;SDS011;19535;50.672;4.206;2022-08-21T00:31:15;4.47;;;4.07;;
33170;SDS011;19535;50.672;4.206;2022-08-21T00:33:43;5.40;;;4.25;;
33170;SDS011;19535;50.672;4.206;2022-08-21T00:36:10;5.00;;;4.28;;
33170;SDS011;19535;50.672;4.206;2022-08-21T00:38:39;4.40;;;3.85;;
33170;SDS011;19535;50.672;4.206;2022-08-21T00:41:06;4.82;;;4.18;;
33170;SDS011;19535;50.672;4.206;2022-08-21T00:43:54;5.67;;;3.93;;
33170;SDS011;19535;50.672;4.206;2022-08-21T00:46:22;5.63;;;3.67;;
33170;SDS011;19535;50.672;4.206;2022-08-21T00:48:53;6.38;;;3.78;;
33170;SDS011;19535;50.672;4.206;2022-08-21T00:51:25;7.03;;;3.75;;
33170;SDS011;19535;50.672;4.206;2022-08-21T00:54:03;5.03;;;3.40;;
33170;SDS011;19535;50.672;4.206;2022-08-21T00:56:35;4.40;;;3.53;;
33170;SDS011;19535;50.672;4.206;2022-08-21T00:59:03;4.07;;;3.38;;
33170;SDS011;19535;50.672;4.206;2022-08-21T01:01:30;6.20;;;3.42;;
33170;SDS011;19535;50.672;4.206;2022-08-21T01:03:57;3.90;;;2.92;;
33170;SDS011;19535;50.672;4.206;2022-08-21T01:06:24;3.28;;;2.78;;
33170;SDS011;19535;50.672;4.206;2022-08-21T01:08:51;4.45;;;3.25;;
33170;SDS011;19535;50.672;4.206;2022-08-21T01:11:18;3.88;;;2.90;;
33170;SDS011;19535;50.672;4.206;2022-08-21T01:13:45;3.30;;;2.97;;
33170;SDS011;19535;50.672;4.206;2022-08-21T01:16:13;4.30;;;3.08;;
33170;SDS011;19535;50.672;4.206;2022-08-21T01:18:43;4.03;;;2.78;;
33170;SDS011;19535;50.672;4.206;2022-08-21T01:21:24;3.92;;;2.83;;
33170;SDS011;19535;50.672;4.206;2022-08-21T01:23:54;4.72;;;2.70;;
33170;SDS011;19535;50.672;4.206;2022-08-21T01:26:23;3.38;;;2.97;;
33170;SDS011;19535;50.672;4.206;2022-08-21T01:31:46;3.70;;;2.97;;
33170;SDS011;19535;50.672;4.206;2022-08-21T01:34:13;4.18;;;2.72;;
33170;SDS011;19535;50.672;4.206;2022-08-21T01:36:42;4.85;;;2.78;;
33170;SDS011;19535;50.672;4.206;2022-08-21T01:39:10;4.32;;;2.78;;
33170;SDS011;19535;50.672;4.206;2022-08-21T01:41:37;3.33;;;2.72;;
33170;SDS011;19535;50.672;4.206;2022-08-21T01:44:04;3.95;;;2.30;;
33170;SDS011;19535;50.672;4.206;2022-08-21T01:46:31;5.13;;;2.97;;
33170;SDS011;19535;50.672;4.206;2022-08-21T01:48:58;4.57;;;2.80;;
33170;SDS011;19535;50.672;4.206;2022-08-21T01:51:25;3.65;;;2.30;;
33170;SDS011;19535;50.672;4.206;2022-08-21T01:53:52;4.47;;;2.75;;
33170;SDS011;19535;50.672;4.206;2022-08-21T01:56:19;3.28;;;2.15;;
33170;SDS011;19535;50.672;4.206;2022-08-21T01:58:46;3.55;;;2.20;;
33170;SDS011;19535;50.672;4.206;2022-08-21T02:01:13;2.97;;;2.28;;
33170;SDS011;19535;50.672;4.206;2022-08-21T02:03:41;2.88;;;2.05;;
33170;SDS011;19535;50.672;4.206;2022-08-21T02:06:11;4.95;;;2.72;;
33170;SDS011;19535;50.672;4.206;2022-08-21T02:08:40;3.83;;;1.92;;
33170;SDS011;19535;50.672;4.206;2022-08-21T02:11:07;3.22;;;2.10;;
33170;SDS011;19535;50.672;4.206;2022-08-21T02:13:34;2.42;;;2.03;;
33170;SDS011;19535;50.672;4.206;2022-08-21T02:16:01;3.78;;;1.88;;
33170;SDS011;19535;50.672;4.206;2022-08-21T02:18:28;3.33;;;2.20;;
33170;SDS011;19535;50.672;4.206;2022-08-21T02:20:55;3.15;;;2.00;;
33170;SDS011;19535;50.672;4.206;2022-08-21T02:23:23;2.67;;;1.90;;
33170;SDS011;19535;50.672;4.206;2022-08-21T02:25:53;2.47;;;2.00;;
33170;SDS011;19535;50.672;4.206;2022-08-21T02:28:21;3.28;;;2.10;;
33170;SDS011;19535;50.672;4.206;2022-08-21T02:30:48;2.45;;;1.67;;
33170;SDS011;19535;50.672;4.206;2022-08-21T02:33:15;3.25;;;1.80;;
33170;SDS011;19535;50.672;4.206;2022-08-21T02:35:43;3.03;;;1.65;;
33170;SDS011;19535;50.672;4.206;2022-08-21T02:38:12;3.13;;;1.98;;
33170;SDS011;19535;50.672;4.206;2022-08-21T02:40:44;2.35;;;1.70;;
33170;SDS011;19535;50.672;4.206;2022-08-21T02:43:13;2.78;;;1.60;;
33170;SDS011;19535;50.672;4.206;2022-08-21T02:45:42;4.13;;;1.85;;
33170;SDS011;19535;50.672;4.206;2022-08-21T02:48:12;2.90;;;1.80;;
33170;SDS011;19535;50.672;4.206;2022-08-21T02:50:46;2.88;;;1.90;;
33170;SDS011;19535;50.672;4.206;2022-08-21T02:53:15;2.35;;;1.67;;
33170;SDS011;19535;50.672;4.206;2022-08-21T02:55:46;1.98;;;1.73;;
33170;SDS011;19535;50.672;4.206;2022-08-21T02:58:15;2.22;;;1.80;;
33170;SDS011;19535;50.672;4.206;2022-08-21T03:00:44;2.17;;;1.52;;
33170;SDS011;19535;50.672;4.206;2022-08-21T03:03:11;3.42;;;1.70;;
33170;SDS011;19535;50.672;4.206;2022-08-21T03:05:39;3.20;;;1.80;;
33170;SDS011;19535;50.672;4.206;2022-08-21T03:08:07;2.03;;;1.45;;
33170;SDS011;19535;50.672;4.206;2022-08-21T03:10:39;2.60;;;1.60;;
33170;SDS011;19535;50.672;4.206;2022-08-21T03:13:07;2.53;;;1.73;;
33170;SDS011;19535;50.672;4.206;2022-08-21T03:15:35;3.08;;;1.63;;
33170;SDS011;19535;50.672;4.206;2022-08-21T03:18:03;3.20;;;1.88;;
33170;SDS011;19535;50.672;4.206;2022-08-21T03:20:31;2.60;;;1.65;;
33170;SDS011;19535;50.672;4.206;2022-08-21T03:22:59;2.47;;;1.73;;
33170;SDS011;19535;50.672;4.206;2022-08-21T03:25:28;2.35;;;1.80;;
33170;SDS011;19535;50.672;4.206;2022-08-21T03:28:07;2.30;;;1.90;;
33170;SDS011;19535;50.672;4.206;2022-08-21T03:30:40;3.58;;;1.90;;
33170;SDS011;19535;50.672;4.206;2022-08-21T03:33:08;2.45;;;1.75;;
33170;SDS011;19535;50.672;4.206;2022-08-21T03:35:38;3.08;;;1.77;;
33170;SDS011;19535;50.672;4.206;2022-08-21T03:38:06;2.42;;;1.52;;
33170;SDS011;19535;50.672;4.206;2022-08-21T03:40:33;2.28;;;1.90;;
33170;SDS011;19535;50.672;4.206;2022-08-21T03:43:00;2.53;;;1.55;;
33170;SDS011;19535;50.672;4.206;2022-08-21T03:45:27;3.22;;;1.88;;
33170;SDS011;19535;50.672;4.206;2022-08-21T03:47:56;2.42;;;1.70;;
33170;SDS011;19535;50.672;4.206;2022-08-21T03:50:26;3.05;;;1.95;;
33170;SDS011;19535;50.672;4.206;2022-08-21T03:52:54;2.38;;;1.77;;
33170;SDS011;19535;50.672;4.206;2022-08-21T03:55:22;3.08;;;1.92;;
33170;SDS011;19535;50.672;4.206;2022-08-21T03:57:49;2.50;;;1.90;;
33170;SDS011;19535;50.672;4.206;2022-08-21T04:00:16;4.05;;;2.05;;
33170;SDS011;19535;50.672;4.206;2022-08-21T04:02:45;2.65;;;1.80;;
33170;SDS011;19535;50.672;4.206;2022-08-21T04:05:12;3.72;;;2.15;;
33170;SDS011;19535;50.672;4.206;2022-08-21T04:07:40;2.00;;;1.50;;
33170;SDS011;19535;50.672;4.206;2022-08-21T04:10:07;3.90;;;1.65;;
33170;SDS011;19535;50.672;4.206;2022-08-21T04:12:35;2.95;;;1.70;;
33170;SDS011;19535;50.672;4.206;2022-08-21T04:15:01;2.50;;;1.95;;
33170;SDS011;19535;50.672;4.206;2022-08-21T04:17:29;3.85;;;2.00;;
33170;SDS011;19535;50.672;4.206;2022-08-21T04:19:56;3.10;;;1.88;;
33170;SDS011;19535;50.672;4.206;2022-08-21T04:22:22;2.08;;;1.58;;
33170;SDS011;19535;50.672;4.206;2022-08-21T04:24:49;2.35;;;1.48;;
33170;SDS011;19535;50.672;4.206;2022-08-21T04:27:16;2.80;;;1.65;;
33170;SDS011;19535;50.672;4.206;2022-08-21T04:29:43;4.53;;;1.65;;
33170;SDS011;19535;50.672;4.206;2022-08-21T04:32:09;2.95;;;1.92;;
33170;SDS011;19535;50.672;4.206;2022-08-21T04:34:36;2.95;;;1.83;;
33170;SDS011;19535;50.672;4.206;2022-08-21T04:37:03;2.45;;;1.50;;
33170;SDS011;19535;50.672;4.206;2022-08-21T04:39:30;2.88;;;1.55;;
33170;SDS011;19535;50.672;4.206;2022-08-21T04:41:57;3.53;;;2.03;;
33170;SDS011;19535;50.672;4.206;2022-08-21T04:44:24;2.78;;;1.38;;
33170;SDS011;19535;50.672;4.206;2022-08-21T04:46:51;1.77;;;1.50;;
33170;SDS011;19535;50.672;4.206;2022-08-21T04:49:17;2.67;;;1.70;;
33170;SDS011;19535;50.672;4.206;2022-08-21T04:51:49;2.72;;;1.75;;
33170;SDS011;19535;50.672;4.206;2022-08-21T04:54:17;3.55;;;1.30;;
33170;SDS011;19535;50.672;4.206;2022-08-21T04:56:53;3.10;;;1.80;;
33170;SDS011;19535;50.672;4.206;2022-08-21T04:59:23;3.38;;;1.40;;
33170;SDS011;19535;50.672;4.206;2022-08-21T05:01:55;1.90;;;1.38;;
33170;SDS011;19535;50.672;4.206;2022-08-21T05:04:23;3.70;;;1.58;;
33170;SDS011;19535;50.672;4.206;2022-08-21T05:06:53;2.00;;;1.33;;
33170;SDS011;19535;50.672;4.206;2022-08-21T05:09:22;2.30;;;1.40;;
33170;SDS011;19535;50.672;4.206;2022-08-21T05:11:49;1.73;;;1.30;;
33170;SDS011;19535;50.672;4.206;2022-08-21T05:14:17;2.70;;;1.48;;
33170;SDS011;19535;50.672;4.206;2022-08-21T05:16:45;2.63;;;1.38;;
33170;SDS011;19535;50.672;4.206;2022-08-21T05:19:12;2.83;;;1.40;;
33170;SDS011;19535;50.672;4.206;2022-08-21T05:21:41;2.88;;;1.42;;
33170;SDS011;19535;50.672;4.206;2022-08-21T05:24:09;3.42;;;1.35;;
33170;SDS011;19535;50.672;4.206;2022-08-21T05:26:37;2.63;;;1.50;;
33170;SDS011;19535;50.672;4.206;2022-08-21T05:29:12;2.00;;;1.27;;
33170;SDS011;19535;50.672;4.206;2022-08-21T05:31:40;2.42;;;1.50;;
33170;SDS011;19535;50.672;4.206;2022-08-21T05:34:07;3.67;;;1.40;;
33170;SDS011;19535;50.672;4.206;2022-08-21T05:36:34;3.22;;;1.40;;
33170;SDS011;19535;50.672;4.206;2022-08-21T05:39:01;2.65;;;1.50;;
33170;SDS011;19535;50.672;4.206;2022-08-21T05:41:28;2.20;;;1.20;;
33170;SDS011;19535;50.672;4.206;2022-08-21T05:43:58;1.95;;;1.23;;
33170;SDS011;19535;50.672;4.206;2022-08-21T05:46:25;2.13;;;1.38;;
33170;SDS011;19535;50.672;4.206;2022-08-21T05:48:52;3.00;;;1.58;;
33170;SDS011;19535;50.672;4.206;2022-08-21T05:51:19;1.58;;;1.40;;
33170;SDS011;19535;50.672;4.206;2022-08-21T05:53:46;2.13;;;1.27;;
33170;SDS011;19535;50.672;4.206;2022-08-21T05:56:13;2.08;;;1.40;;
33170;SDS011;19535;50.672;4.206;2022-08-21T05:58:41;1.60;;;1.13;;
33170;SDS011;19535;50.672;4.206;2022-08-21T06:01:08;1.95;;;1.30;;
33170;SDS011;19535;50.672;4.206;2022-08-21T06:03:37;2.67;;;1.55;;
33170;SDS011;19535;50.672;4.206;2022-08-21T06:06:05;3.45;;;1.42;;
33170;SDS011;19535;50.672;4.206;2022-08-21T06:08:32;3.28;;;1.77;;
33170;SDS011;19535;50.672;4.206;2022-08-21T06:11:00;2.80;;;1.50;;
33170;SDS011;19535;50.672;4.206;2022-08-21T06:13:28;3.28;;;1.35;;
33170;SDS011;19535;50.672;4.206;2022-08-21T06:18:41;2.88;;;1.50;;
33170;SDS011;19535;50.672;4.206;2022-08-21T06:21:09;3.92;;;1.60;;
33170;SDS011;19535;50.672;4.206;2022-08-21T06:23:37;1.77;;;1.35;;
33170;SDS011;19535;50.672;4.206;2022-08-21T06:26:05;3.05;;;1.60;;
33170;SDS011;19535;50.672;4.206;2022-08-21T06:28:36;1.85;;;1.20;;
33170;SDS011;19535;50.672;4.206;2022-08-21T06:31:22;3.40;;;1.48;;
33170;SDS011;19535;50.672;4.206;2022-08-21T06:33:50;2.40;;;1.33;;
33170;SDS011;19535;50.672;4.206;2022-08-21T06:36:18;2.80;;;1.40;;
33170;SDS011;19535;50.672;4.206;2022-08-21T06:38:46;2.72;;;1.30;;
33170;SDS011;19535;50.672;4.206;2022-08-21T06:41:17;4.15;;;1.40;;
33170;SDS011;19535;50.672;4.206;2022-08-21T06:43:51;3.35;;;1.80;;
33170;SDS011;19535;50.672;4.206;2022-08-21T06:46:18;2.92;;;1.33;;
33170;SDS011;19535;50.672;4.206;2022-08-21T06:48:45;4.63;;;1.52;;
33170;SDS011;19535;50.672;4.206;2022-08-21T06:51:12;2.30;;;1.30;;
33170;SDS011;19535;50.672;4.206;2022-08-21T06:53:39;4.47;;;1.50;;
33170;SDS011;19535;50.672;4.206;2022-08-21T06:56:06;2.42;;;1.55;;
33170;SDS011;19535;50.672;4.206;2022-08-21T06:58:33;3.08;;;1.20;;
33170;SDS011;19535;50.672;4.206;2022-08-21T07:01:00;2.40;;;1.30;;
33170;SDS011;19535;50.672;4.206;2022-08-21T07:03:28;2.92;;;1.60;;
33170;SDS011;19535;50.672;4.206;2022-08-21T07:06:00;4.00;;;1.40;;
33170;SDS011;19535;50.672;4.206;2022-08-21T07:08:27;2.28;;;1.20;;
33170;SDS011;19535;50.672;4.206;2022-08-21T07:10:58;3.42;;;1.60;;
33170;SDS011;19535;50.672;4.206;2022-08-21T07:13:26;2.67;;;1.33;;
33170;SDS011;19535;50.672;4.206;2022-08-21T07:15:53;4.78;;;1.48;;
33170;SDS011;19535;50.672;4.206;2022-08-21T07:18:25;3.47;;;1.50;;
33170;SDS011;19535;50.672;4.206;2022-08-21T07:20:52;1.98;;;1.30;;
33170;SDS011;19535;50.672;4.206;2022-08-21T07:23:22;2.97;;;1.45;;
33170;SDS011;19535;50.672;4.206;2022-08-21T07:25:56;2.75;;;1.50;;
33170;SDS011;19535;50.672;4.206;2022-08-21T07:28:25;2.70;;;1.30;;
33170;SDS011;19535;50.672;4.206;2022-08-21T07:30:53;3.40;;;1.65;;
33170;SDS011;19535;50.672;4.206;2022-08-21T07:35:49;6.47;;;3.53;;
33170;SDS011;19535;50.672;4.206;2022-08-21T07:38:16;5.13;;;3.40;;
33170;SDS011;19535;50.672;4.206;2022-08-21T07:40:45;5.50;;;3.55;;
33170;SDS011;19535;50.672;4.206;2022-08-21T07:43:12;6.32;;;3.00;;
33170;SDS011;19535;50.672;4.206;2022-08-21T07:45:39;5.53;;;3.15;;
33170;SDS011;19535;50.672;4.206;2022-08-21T07:48:06;3.75;;;2.72;;
33170;SDS011;19535;50.672;4.206;2022-08-21T07:50:33;6.03;;;2.83;;
33170;SDS011;19535;50.672;4.206;2022-08-21T07:53:00;6.43;;;2.75;;
33170;SDS011;19535;50.672;4.206;2022-08-21T07:55:26;4.97;;;2.30;;
33170;SDS011;19535;50.672;4.206;2022-08-21T07:57:53;5.25;;;2.70;;
33170;SDS011;19535;50.672;4.206;2022-08-21T08:00:22;7.10;;;2.72;;
33170;SDS011;19535;50.672;4.206;2022-08-21T08:02:51;4.38;;;2.30;;
33170;SDS011;19535;50.672;4.206;2022-08-21T08:07:48;4.55;;;2.53;;
33170;SDS011;19535;50.672;4.206;2022-08-21T08:10:15;5.65;;;2.10;;
33170;SDS011;19535;50.672;4.206;2022-08-21T08:12:43;4.85;;;2.10;;
33170;SDS011;19535;50.672;4.206;2022-08-21T08:15:15;4.50;;;2.00;;
33170;SDS011;19535;50.672;4.206;2022-08-21T08:17:43;5.03;;;1.98;;
33170;SDS011;19535;50.672;4.206;2022-08-21T08:20:10;4.57;;;1.65;;
33170;SDS011;19535;50.672;4.206;2022-08-21T08:22:39;5.38;;;1.70;;
33170;SDS011;19535;50.672;4.206;2022-08-21T08:25:07;4.47;;;1.92;;
33170;SDS011;19535;50.672;4.206;2022-08-21T08:27:35;4.88;;;1.80;;
33170;SDS011;19535;50.672;4.206;2022-08-21T08:30:03;4.03;;;1.90;;
33170;SDS011;19535;50.672;4.206;2022-08-21T08:32:31;4.38;;;1.70;;
33170;SDS011;19535;50.672;4.206;2022-08-21T08:34:58;3.78;;;1.70;;
33170;SDS011;19535;50.672;4.206;2022-08-21T08:37:25;4.55;;;1.92;;
33170;SDS011;19535;50.672;4.206;2022-08-21T08:40:00;3.72;;;1.40;;
33170;SDS011;19535;50.672;4.206;2022-08-21T08:42:33;3.35;;;1.67;;
33170;SDS011;19535;50.672;4.206;2022-08-21T08:45:05;6.80;;;2.10;;
33170;SDS011;19535;50.672;4.206;2022-08-21T08:47:34;6.55;;;2.10;;
33170;SDS011;19535;50.672;4.206;2022-08-21T08:53:06;3.20;;;1.60;;
33170;SDS011;19535;50.672;4.206;2022-08-21T08:58:29;3.72;;;1.88;;
33170;SDS011;19535;50.672;4.206;2022-08-21T09:01:00;6.13;;;2.17;;
33170;SDS011;19535;50.672;4.206;2022-08-21T09:03:28;5.93;;;2.00;;
33170;SDS011;19535;50.672;4.206;2022-08-21T09:05:57;4.68;;;2.00;;
33170;SDS011;19535;50.672;4.206;2022-08-21T09:14:32;3.92;;;1.70;;
33170;SDS011;19535;50.672;4.206;2022-08-21T09:25:20;9.00;;;1.98;;
33170;SDS011;19535;50.672;4.206;2022-08-21T09:27:49;4.70;;;1.83;;
33170;SDS011;19535;50.672;4.206;2022-08-21T09:30:17;4.88;;;1.98;;
33170;SDS011;19535;50.672;4.206;2022-08-21T09:32:44;5.75;;;1.80;;
33170;SDS011;19535;50.672;4.206;2022-08-21T09:35:15;6.07;;;1.90;;
33170;SDS011;19535;50.672;4.206;2022-08-21T09:43:03;4.53;;;1.42;;
33170;SDS011;19535;50.672;4.206;2022-08-21T09:45:34;8.30;;;1.98;;
33170;SDS011;19535;50.672;4.206;2022-08-21T09:48:38;5.60;;;1.73;;
33170;SDS011;19535;50.672;4.206;2022-08-21T09:51:07;7.32;;;2.10;;
33170;SDS011;19535;50.672;4.206;2022-08-21T09:53:38;7.22;;;1.73;;
33170;SDS011;19535;50.672;4.206;2022-08-21T09:59:27;6.78;;;1.90;;
33170;SDS011;19535;50.672;4.206;2022-08-21T10:02:03;5.10;;;1.80;;
33170;SDS011;19535;50.672;4.206;2022-08-21T10:04:51;7.23;;;1.93;;
33170;SDS011;19535;50.672;4.206;2022-08-21T10:07:24;5.68;;;1.73;;
33170;SDS011;19535;50.672;4.206;2022-08-21T10:12:29;4.50;;;1.60;;
33170;SDS011;19535;50.672;4.206;2022-08-21T10:18:00;5.68;;;1.90;;
33170;SDS011;19535;50.672;4.206;2022-08-21T10:20:37;6.13;;;2.20;;
33170;SDS011;19535;50.672;4.206;2022-08-21T10:23:18;5.13;;;1.60;;
33170;SDS011;19535;50.672;4.206;2022-08-21T10:26:21;7.32;;;2.30;;
33170;SDS011;19535;50.672;4.206;2022-08-21T10:29:25;6.93;;;1.90;;
33170;SDS011;19535;50.672;4.206;2022-08-21T10:32:03;7.70;;;2.30;;
33170;SDS011;19535;50.672;4.206;2022-08-21T10:34:57;5.88;;;2.10;;
33170;SDS011;19535;50.672;4.206;2022-08-21T10:37:55;6.63;;;2.20;;
33170;SDS011;19535;50.672;4.206;2022-08-21T10:48:50;6.00;;;2.30;;
33170;SDS011;19535;50.672;4.206;2022-08-21T10:56:55;9.53;;;2.17;;
33170;SDS011;19535;50.672;4.206;2022-08-21T10:59:51;6.25;;;2.22;;
33170;SDS011;19535;50.672;4.206;2022-08-21T11:02:22;6.38;;;1.92;;
33170;SDS011;19535;50.672;4.206;2022-08-21T11:07:30;6.97;;;2.30;;
33170;SDS011;19535;50.672;4.206;2022-08-21T11:10:02;5.78;;;2.50;;
33170;SDS011;19535;50.672;4.206;2022-08-21T11:12:41;4.85;;;2.15;;
33170;SDS011;19535;50.672;4.206;2022-08-21T11:18:30;6.72;;;2.05;;
33170;SDS011;19535;50.672;4.206;2022-08-21T11:26:57;5.80;;;2.67;;
33170;SDS011;19535;50.672;4.206;2022-08-21T11:29:31;6.88;;;2.40;;
33170;SDS011;19535;50.672;4.206;2022-08-21T11:37:03;7.38;;;2.58;;
33170;SDS011;19535;50.672;4.206;2022-08-21T11:39:38;6.15;;;2.22;;
33170;SDS011;19535;50.672;4.206;2022-08-21T11:45:09;7.60;;;2.30;;
33170;SDS011;19535;50.672;4.206;2022-08-21T11:50:33;7.28;;;1.95;;
33170;SDS011;19535;50.672;4.206;2022-08-21T11:56:23;9.10;;;2.13;;
33170;SDS011;19535;50.672;4.206;2022-08-21T11:59:11;6.75;;;2.28;;
33170;SDS011;19535;50.672;4.206;2022-08-21T12:01:46;6.72;;;2.17;;
33170;SDS011;19535;50.672;4.206;2022-08-21T12:04:34;6.20;;;2.17;;
33170;SDS011;19535;50.672;4.206;2022-08-21T12:07:11;5.88;;;1.98;;
33170;SDS011;19535;50.672;4.206;2022-08-21T12:09:51;6.90;;;2.05;;
33170;SDS011;19535;50.672;4.206;2022-08-21T12:12:27;5.70;;;2.25;;
33170;SDS011;19535;50.672;4.206;2022-08-21T12:20:33;6.18;;;2.03;;
33170;SDS011;19535;50.672;4.206;2022-08-21T12:25:42;5.25;;;1.90;;
33170;SDS011;19535;50.672;4.206;2022-08-21T12:28:27;5.95;;;2.30;;
33170;SDS011;19535;50.672;4.206;2022-08-21T12:30:55;6.37;;;2.57;;
33170;SDS011;19535;50.672;4.206;2022-08-21T12:33:28;6.18;;;1.90;;
33170;SDS011;19535;50.672;4.206;2022-08-21T12:36:02;5.80;;;2.28;;
33170;SDS011;19535;50.672;4.206;2022-08-21T12:38:39;5.75;;;1.83;;
33170;SDS011;19535;50.672;4.206;2022-08-21T12:41:22;7.32;;;2.28;;
33170;SDS011;19535;50.672;4.206;2022-08-21T12:43:56;5.95;;;1.83;;
33170;SDS011;19535;50.672;4.206;2022-08-21T12:46:28;8.55;;;2.22;;
33170;SDS011;19535;50.672;4.206;2022-08-21T12:49:07;7.70;;;2.33;;
33170;SDS011;19535;50.672;4.206;2022-08-21T12:54:30;7.32;;;2.00;;
33170;SDS011;19535;50.672;4.206;2022-08-21T12:57:02;4.93;;;1.67;;
33170;SDS011;19535;50.672;4.206;2022-08-21T12:59:31;8.13;;;2.28;;
33170;SDS011;19535;50.672;4.206;2022-08-21T13:01:59;7.35;;;2.53;;
33170;SDS011;19535;50.672;4.206;2022-08-21T13:04:37;6.38;;;3.35;;
33170;SDS011;19535;50.672;4.206;2022-08-21T13:07:10;6.18;;;2.90;;
33170;SDS011;19535;50.672;4.206;2022-08-21T13:09:46;6.68;;;2.60;;
33170;SDS011;19535;50.672;4.206;2022-08-21T13:12:21;10.50;;;3.05;;
33170;SDS011;19535;50.672;4.206;2022-08-21T13:14:48;7.43;;;2.42;;
33170;SDS011;19535;50.672;4.206;2022-08-21T13:17:19;6.85;;;2.50;;
33170;SDS011;19535;50.672;4.206;2022-08-21T13:19:58;7.18;;;2.53;;
33170;SDS011;19535;50.672;4.206;2022-08-21T13:22:27;4.40;;;1.77;;
33170;SDS011;19535;50.672;4.206;2022-08-21T13:24:59;6.15;;;2.30;;
33170;SDS011;19535;50.672;4.206;2022-08-21T13:27:32;8.20;;;2.30;;
33170;SDS011;19535;50.672;4.206;2022-08-21T13:30:01;6.53;;;2.13;;
33170;SDS011;19535;50.672;4.206;2022-08-21T13:32:28;6.10;;;1.90;;
33170;SDS011;19535;50.672;4.206;2022-08-21T13:34:58;5.63;;;2.00;;
33170;SDS011;19535;50.672;4.206;2022-08-21T13:37:33;7.93;;;2.10;;
33170;SDS011;19535;50.672;4.206;2022-08-21T13:40:01;4.63;;;1.75;;
33170;SDS011;19535;50.672;4.206;2022-08-21T13:42:29;7.50;;;1.95;;
33170;SDS011;19535;50.672;4.206;2022-08-21T13:44:55;10.02;;;2.40;;
33170;SDS011;19535;50.672;4.206;2022-08-21T13:47:22;7.93;;;2.40;;
33170;SDS011;19535;50.672;4.206;2022-08-21T13:49:50;6.70;;;2.17;;
33170;SDS011;19535;50.672;4.206;2022-08-21T13:52:25;6.75;;;2.10;;
33170;SDS011;19535;50.672;4.206;2022-08-21T13:57:31;8.85;;;2.50;;
33170;SDS011;19535;50.672;4.206;2022-08-21T14:00:09;10.35;;;2.40;;
33170;SDS011;19535;50.672;4.206;2022-08-21T14:02:40;8.18;;;2.33;;
33170;SDS011;19535;50.672;4.206;2022-08-21T14:05:14;6.53;;;2.70;;
33170;SDS011;19535;50.672;4.206;2022-08-21T14:08:11;8.70;;;2.10;;
33170;SDS011;19535;50.672;4.206;2022-08-21T14:10:41;5.28;;;2.30;;
33170;SDS011;19535;50.672;4.206;2022-08-21T14:13:21;7.47;;;2.38;;
33170;SDS011;19535;50.672;4.206;2022-08-21T14:15:59;7.32;;;2.47;;
33170;SDS011;19535;50.672;4.206;2022-08-21T14:18:27;6.65;;;1.92;;
33170;SDS011;19535;50.672;4.206;2022-08-21T14:21:07;5.40;;;1.80;;
33170;SDS011;19535;50.672;4.206;2022-08-21T14:23:35;6.78;;;2.00;;
33170;SDS011;19535;50.672;4.206;2022-08-21T14:26:03;6.90;;;2.60;;
33170;SDS011;19535;50.672;4.206;2022-08-21T14:28:32;7.00;;;2.20;;
33170;SDS011;19535;50.672;4.206;2022-08-21T14:31:12;6.63;;;2.03;;
33170;SDS011;19535;50.672;4.206;2022-08-21T14:33:47;4.82;;;1.90;;
33170;SDS011;19535;50.672;4.206;2022-08-21T14:36:14;6.82;;;1.90;;
33170;SDS011;19535;50.672;4.206;2022-08-21T14:38:41;8.35;;;2.08;;
33170;SDS011;19535;50.672;4.206;2022-08-21T14:41:12;4.28;;;1.67;;
33170;SDS011;19535;50.672;4.206;2022-08-21T14:43:50;5.95;;;2.08;;
33170;SDS011;19535;50.672;4.206;2022-08-21T14:46:31;5.90;;;2.20;;
33170;SDS011;19535;50.672;4.206;2022-08-21T14:48:59;7.43;;;2.17;;
33170;SDS011;19535;50.672;4.206;2022-08-21T14:51:25;5.70;;;2.40;;
33170;SDS011;19535;50.672;4.206;2022-08-21T14:53:52;8.40;;;2.10;;
33170;SDS011;19535;50.672;4.206;2022-08-21T14:56:19;5.45;;;2.03;;
33170;SDS011;19535;50.672;4.206;2022-08-21T14:58:47;6.65;;;2.30;;
33170;SDS011;19535;50.672;4.206;2022-08-21T15:01:15;5.45;;;2.10;;
33170;SDS011;19535;50.672;4.206;2022-08-21T15:03:45;4.18;;;1.95;;
33170;SDS011;19535;50.672;4.206;2022-08-21T15:06:14;6.82;;;2.53;;
33170;SDS011;19535;50.672;4.206;2022-08-21T15:08:43;6.82;;;3.85;;
33170;SDS011;19535;50.672;4.206;2022-08-21T15:11:11;8.70;;;4.85;;
33170;SDS011;19535;50.672;4.206;2022-08-21T15:14:08;8.10;;;3.65;;
33170;SDS011;19535;50.672;4.206;2022-08-21T15:16:37;7.78;;;3.00;;
33170;SDS011;19535;50.672;4.206;2022-08-21T15:19:04;7.20;;;2.90;;
33170;SDS011;19535;50.672;4.206;2022-08-21T15:21:31;5.20;;;2.30;;
33170;SDS011;19535;50.672;4.206;2022-08-21T15:23:58;3.78;;;2.15;;
33170;SDS011;19535;50.672;4.206;2022-08-21T15:26:24;5.15;;;1.85;;
33170;SDS011;19535;50.672;4.206;2022-08-21T15:28:51;5.60;;;2.42;;
33170;SDS011;19535;50.672;4.206;2022-08-21T15:31:18;5.45;;;1.98;;
33170;SDS011;19535;50.672;4.206;2022-08-21T15:33:45;5.47;;;1.80;;
33170;SDS011;19535;50.672;4.206;2022-08-21T15:36:12;7.38;;;2.10;;
33170;SDS011;19535;50.672;4.206;2022-08-21T15:38:39;6.97;;;2.22;;
33170;SDS011;19535;50.672;4.206;2022-08-21T15:41:06;5.53;;;1.98;;
33170;SDS011;19535;50.672;4.206;2022-08-21T15:43:39;8.52;;;2.17;;
33170;SDS011;19535;50.672;4.206;2022-08-21T15:46:10;5.32;;;2.10;;
33170;SDS011;19535;50.672;4.206;2022-08-21T15:48:39;5.82;;;2.22;;
33170;SDS011;19535;50.672;4.206;2022-08-21T15:51:05;6.38;;;1.90;;
33170;SDS011;19535;50.672;4.206;2022-08-21T15:53:32;8.00;;;2.00;;
33170;SDS011;19535;50.672;4.206;2022-08-21T15:56:02;10.60;;;2.40;;
33170;SDS011;19535;50.672;4.206;2022-08-21T15:58:29;7.65;;;2.17;;
33170;SDS011;19535;50.672;4.206;2022-08-21T16:01:00;5.78;;;1.90;;
33170;SDS011;19535;50.672;4.206;2022-08-21T16:03:29;5.32;;;2.00;;
33170;SDS011;19535;50.672;4.206;2022-08-21T16:05:56;6.13;;;2.15;;
33170;SDS011;19535;50.672;4.206;2022-08-21T16:08:23;8.52;;;3.75;;
33170;SDS011;19535;50.672;4.206;2022-08-21T16:10:51;6.60;;;4.40;;
33170;SDS011;19535;50.672;4.206;2022-08-21T16:13:23;7.25;;;3.97;;
33170;SDS011;19535;50.672;4.206;2022-08-21T16:15:52;6.75;;;3.20;;
33170;SDS011;19535;50.672;4.206;2022-08-21T16:18:19;9.30;;;2.90;;
33170;SDS011;19535;50.672;4.206;2022-08-21T16:20:48;6.53;;;2.53;;
33170;SDS011;19535;50.672;4.206;2022-08-21T16:23:15;6.05;;;2.05;;
33170;SDS011;19535;50.672;4.206;2022-08-21T16:25:42;5.20;;;2.17;;
33170;SDS011;19535;50.672;4.206;2022-08-21T16:28:11;5.65;;;2.08;;
33170;SDS011;19535;50.672;4.206;2022-08-21T16:30:40;8.63;;;2.22;;
33170;SDS011;19535;50.672;4.206;2022-08-21T16:33:11;4.65;;;1.90;;
33170;SDS011;19535;50.672;4.206;2022-08-21T16:35:50;5.57;;;2.15;;
33170;SDS011;19535;50.672;4.206;2022-08-21T16:38:17;6.63;;;2.25;;
33170;SDS011;19535;50.672;4.206;2022-08-21T16:40:44;6.93;;;2.30;;
33170;SDS011;19535;50.672;4.206;2022-08-21T16:43:11;4.78;;;2.10;;
33170;SDS011;19535;50.672;4.206;2022-08-21T16:45:38;8.63;;;2.58;;
33170;SDS011;19535;50.672;4.206;2022-08-21T16:48:04;6.22;;;2.00;;